sensor_id;sensor_type;location;lat;lon;timestamp;temperature;humidity
45785;DHT22;31489;51.404;5.474;2022-10-13T00:02:08;15.80;63.80
45785;DHT22;31489;51.404;5.474;2022-10-13T00:04:34;15.90;63.90
45785;DHT22;31489;51.404;5.474;2022-10-13T00:07:00;15.90;63.90
45785;DHT22;31489;51.404;5.474;2022-10-13T00:09:25;15.90;64.00
45785;DHT22;31489;51.404;5.474;2022-10-13T00:11:51;15.90;64.00
45785;DHT22;31489;51.404;5.474;2022-10-13T00:14:16;15.90;64.00
45785;DHT22;31489;51.404;5.474;2022-10-13T00:16:42;15.90;64.30
45785;DHT22;31489;51.404;5.474;2022-10-13T00:19:07;15.90;64.60
45785;DHT22;31489;51.404;5.474;2022-10-13T00:21:33;15.90;64.90
45785;DHT22;31489;51.404;5.474;2022-10-13T00:23:59;15.90;64.70
45785;DHT22;31489;51.404;5.474;2022-10-13T00:26:25;15.90;64.90
45785;DHT22;31489;51.404;5.474;2022-10-13T00:28:52;15.90;65.00
45785;DHT22;31489;51.404;5.474;2022-10-13T00:31:26;15.90;65.10
45785;DHT22;31489;51.404;5.474;2022-10-13T00:33:53;15.90;65.20
45785;DHT22;31489;51.404;5.474;2022-10-13T00:36:20;15.90;65.00
45785;DHT22;31489;51.404;5.474;2022-10-13T00:38:46;15.90;65.10
45785;DHT22;31489;51.404;5.474;2022-10-13T00:41:12;15.90;65.20
45785;DHT22;31489;51.404;5.474;2022-10-13T00:43:54;15.90;65.10
45785;DHT22;31489;51.404;5.474;2022-10-13T00:46:22;15.90;65.70
45785;DHT22;31489;51.404;5.474;2022-10-13T00:48:50;15.90;65.00
45785;DHT22;31489;51.404;5.474;2022-10-13T00:51:19;15.90;65.10
45785;DHT22;31489;51.404;5.474;2022-10-13T00:53:46;15.90;65.20
45785;DHT22;31489;51.404;5.474;2022-10-13T00:56:14;15.90;65.10
45785;DHT22;31489;51.404;5.474;2022-10-13T00:58:41;15.90;65.20
45785;DHT22;31489;51.404;5.474;2022-10-13T01:01:09;15.90;65.30
45785;DHT22;31489;51.404;5.474;2022-10-13T01:03:35;15.90;65.30
45785;DHT22;31489;51.404;5.474;2022-10-13T01:06:02;15.90;65.50
45785;DHT22;31489;51.404;5.474;2022-10-13T01:08:29;15.90;65.50
45785;DHT22;31489;51.404;5.474;2022-10-13T01:13:47;15.90;65.40
45785;DHT22;31489;51.404;5.474;2022-10-13T01:16:29;15.90;65.40
45785;DHT22;31489;51.404;5.474;2022-10-13T01:21:48;15.90;65.90
45785;DHT22;31489;51.404;5.474;2022-10-13T01:35:44;15.90;66.00
45785;DHT22;31489;51.404;5.474;2022-10-13T01:37:54;15.90;66.00
45785;DHT22;31489;51.404;5.474;2022-10-13T01:41:32;15.90;65.90
45785;DHT22;31489;51.404;5.474;2022-10-13T01:43:43;15.90;66.20
45785;DHT22;31489;51.404;5.474;2022-10-13T01:46:16;15.90;66.00
45785;DHT22;31489;51.404;5.474;2022-10-13T01:48:44;15.90;66.20
45785;DHT22;31489;51.404;5.474;2022-10-13T01:51:13;15.90;66.00
45785;DHT22;31489;51.404;5.474;2022-10-13T01:53:41;15.90;66.20
45785;DHT22;31489;51.404;5.474;2022-10-13T01:56:08;15.90;66.20
45785;DHT22;31489;51.404;5.474;2022-10-13T01:58:35;15.90;66.10
45785;DHT22;31489;51.404;5.474;2022-10-13T02:01:11;15.90;66.20
45785;DHT22;31489;51.404;5.474;2022-10-13T02:04:04;15.90;66.20
45785;DHT22;31489;51.404;5.474;2022-10-13T02:06:55;15.90;66.70
45785;DHT22;31489;51.404;5.474;2022-10-13T02:09:45;15.90;66.70
45785;DHT22;31489;51.404;5.474;2022-10-13T02:12:31;15.90;66.60
45785;DHT22;31489;51.404;5.474;2022-10-13T02:14:59;15.90;66.40
45785;DHT22;31489;51.404;5.474;2022-10-13T02:17:26;16.00;66.20
45785;DHT22;31489;51.404;5.474;2022-10-13T02:19:53;16.00;66.30
45785;DHT22;31489;51.404;5.474;2022-10-13T02:22:19;15.90;66.30
45785;DHT22;31489;51.404;5.474;2022-10-13T02:24:46;15.90;66.30
45785;DHT22;31489;51.404;5.474;2022-10-13T02:27:12;15.90;66.40
45785;DHT22;31489;51.404;5.474;2022-10-13T02:29:55;16.00;66.60
45785;DHT22;31489;51.404;5.474;2022-10-13T02:32:21;16.00;67.10
45785;DHT22;31489;51.404;5.474;2022-10-13T02:34:46;16.00;66.50
45785;DHT22;31489;51.404;5.474;2022-10-13T02:37:12;16.00;66.50
45785;DHT22;31489;51.404;5.474;2022-10-13T02:39:38;16.00;66.60
45785;DHT22;31489;51.404;5.474;2022-10-13T02:42:04;15.90;66.50
45785;DHT22;31489;51.404;5.474;2022-10-13T02:44:30;15.90;66.60
45785;DHT22;31489;51.404;5.474;2022-10-13T02:46:56;16.00;66.70
45785;DHT22;31489;51.404;5.474;2022-10-13T02:49:21;16.00;66.70
45785;DHT22;31489;51.404;5.474;2022-10-13T02:51:47;16.00;66.70
45785;DHT22;31489;51.404;5.474;2022-10-13T02:54:13;16.00;66.80
45785;DHT22;31489;51.404;5.474;2022-10-13T02:56:38;16.00;66.80
45785;DHT22;31489;51.404;5.474;2022-10-13T02:59:04;16.00;66.80
45785;DHT22;31489;51.404;5.474;2022-10-13T03:01:30;16.00;66.80
45785;DHT22;31489;51.404;5.474;2022-10-13T03:03:55;16.00;66.90
45785;DHT22;31489;51.404;5.474;2022-10-13T03:06:21;16.00;66.90
45785;DHT22;31489;51.404;5.474;2022-10-13T03:08:47;16.00;66.80
45785;DHT22;31489;51.404;5.474;2022-10-13T03:11:12;16.00;66.90
45785;DHT22;31489;51.404;5.474;2022-10-13T03:13:38;16.00;66.90
45785;DHT22;31489;51.404;5.474;2022-10-13T03:16:04;16.00;66.80
45785;DHT22;31489;51.404;5.474;2022-10-13T03:18:30;16.00;67.00
45785;DHT22;31489;51.404;5.474;2022-10-13T03:21:03;16.00;67.00
45785;DHT22;31489;51.404;5.474;2022-10-13T03:23:29;16.00;67.20
45785;DHT22;31489;51.404;5.474;2022-10-13T03:25:55;16.00;67.10
45785;DHT22;31489;51.404;5.474;2022-10-13T03:28:21;16.10;67.20
45785;DHT22;31489;51.404;5.474;2022-10-13T03:30:47;16.00;67.10
45785;DHT22;31489;51.404;5.474;2022-10-13T03:33:13;16.00;67.10
45785;DHT22;31489;51.404;5.474;2022-10-13T03:35:38;16.00;66.90
45785;DHT22;31489;51.404;5.474;2022-10-13T03:38:04;16.00;66.90
45785;DHT22;31489;51.404;5.474;2022-10-13T03:40:30;16.00;66.90
45785;DHT22;31489;51.404;5.474;2022-10-13T03:42:55;16.00;66.90
45785;DHT22;31489;51.404;5.474;2022-10-13T03:45:21;16.00;67.00
45785;DHT22;31489;51.404;5.474;2022-10-13T03:47:46;16.10;67.00
45785;DHT22;31489;51.404;5.474;2022-10-13T03:50:12;16.00;66.90
45785;DHT22;31489;51.404;5.474;2022-10-13T03:52:38;16.00;67.00
45785;DHT22;31489;51.404;5.474;2022-10-13T03:55:03;16.00;67.00
45785;DHT22;31489;51.404;5.474;2022-10-13T03:57:29;16.00;67.00
45785;DHT22;31489;51.404;5.474;2022-10-13T03:59:55;16.00;67.00
45785;DHT22;31489;51.404;5.474;2022-10-13T04:02:22;16.00;67.00
45785;DHT22;31489;51.404;5.474;2022-10-13T04:04:48;16.00;67.10
45785;DHT22;31489;51.404;5.474;2022-10-13T04:07:13;16.00;67.10
45785;DHT22;31489;51.404;5.474;2022-10-13T04:09:40;16.00;67.00
45785;DHT22;31489;51.404;5.474;2022-10-13T04:12:06;16.00;67.10
45785;DHT22;31489;51.404;5.474;2022-10-13T04:14:31;16.00;67.10
45785;DHT22;31489;51.404;5.474;2022-10-13T04:16:57;16.00;67.10
45785;DHT22;31489;51.404;5.474;2022-10-13T04:19:23;16.00;67.10
45785;DHT22;31489;51.404;5.474;2022-10-13T04:21:48;16.00;67.10
45785;DHT22;31489;51.404;5.474;2022-10-13T04:24:14;16.00;67.30
45785;DHT22;31489;51.404;5.474;2022-10-13T04:26:42;16.00;67.30
45785;DHT22;31489;51.404;5.474;2022-10-13T04:29:09;15.90;67.20
45785;DHT22;31489;51.404;5.474;2022-10-13T04:31:35;15.90;67.30
45785;DHT22;31489;51.404;5.474;2022-10-13T04:34:01;15.90;67.20
45785;DHT22;31489;51.404;5.474;2022-10-13T04:36:27;15.90;67.20
45785;DHT22;31489;51.404;5.474;2022-10-13T04:38:53;15.90;67.20
45785;DHT22;31489;51.404;5.474;2022-10-13T04:41:19;15.90;67.20
45785;DHT22;31489;51.404;5.474;2022-10-13T04:43:49;15.90;67.20
45785;DHT22;31489;51.404;5.474;2022-10-13T04:46:21;15.90;67.40
45785;DHT22;31489;51.404;5.474;2022-10-13T04:48:47;15.90;67.60
45785;DHT22;31489;51.404;5.474;2022-10-13T04:51:15;15.90;68.00
45785;DHT22;31489;51.404;5.474;2022-10-13T04:53:41;15.90;68.20
45785;DHT22;31489;51.404;5.474;2022-10-13T04:56:10;15.90;67.50
45785;DHT22;31489;51.404;5.474;2022-10-13T04:58:37;15.90;67.60
45785;DHT22;31489;51.404;5.474;2022-10-13T05:01:06;15.90;67.60
45785;DHT22;31489;51.404;5.474;2022-10-13T05:03:35;15.90;67.60
45785;DHT22;31489;51.404;5.474;2022-10-13T05:06:01;15.90;67.60
45785;DHT22;31489;51.404;5.474;2022-10-13T05:08:26;16.00;67.60
45785;DHT22;31489;51.404;5.474;2022-10-13T05:10:57;16.00;67.60
45785;DHT22;31489;51.404;5.474;2022-10-13T05:13:24;16.00;67.90
45785;DHT22;31489;51.404;5.474;2022-10-13T05:15:50;16.00;67.70
45785;DHT22;31489;51.404;5.474;2022-10-13T05:18:16;16.00;67.60
45785;DHT22;31489;51.404;5.474;2022-10-13T05:20:42;16.00;67.60
45785;DHT22;31489;51.404;5.474;2022-10-13T05:23:08;16.00;67.60
45785;DHT22;31489;51.404;5.474;2022-10-13T05:25:34;16.00;68.20
45785;DHT22;31489;51.404;5.474;2022-10-13T05:28:02;16.00;67.80
45785;DHT22;31489;51.404;5.474;2022-10-13T05:30:28;16.00;67.70
45785;DHT22;31489;51.404;5.474;2022-10-13T05:32:53;16.00;67.60
45785;DHT22;31489;51.404;5.474;2022-10-13T05:35:19;16.00;67.60
45785;DHT22;31489;51.404;5.474;2022-10-13T05:37:44;16.00;67.60
45785;DHT22;31489;51.404;5.474;2022-10-13T05:40:10;16.00;67.70
45785;DHT22;31489;51.404;5.474;2022-10-13T05:42:36;16.00;67.70
45785;DHT22;31489;51.404;5.474;2022-10-13T05:45:02;16.00;67.60
45785;DHT22;31489;51.404;5.474;2022-10-13T05:47:28;16.00;67.70
45785;DHT22;31489;51.404;5.474;2022-10-13T05:49:54;16.00;67.60
45785;DHT22;31489;51.404;5.474;2022-10-13T05:52:21;16.00;67.70
45785;DHT22;31489;51.404;5.474;2022-10-13T05:54:51;16.00;67.70
45785;DHT22;31489;51.404;5.474;2022-10-13T05:57:30;16.00;67.80
45785;DHT22;31489;51.404;5.474;2022-10-13T06:00:04;16.10;68.10
45785;DHT22;31489;51.404;5.474;2022-10-13T06:02:35;16.10;67.80
45785;DHT22;31489;51.404;5.474;2022-10-13T06:05:03;16.10;67.80
45785;DHT22;31489;51.404;5.474;2022-10-13T06:07:30;16.10;67.80
45785;DHT22;31489;51.404;5.474;2022-10-13T06:09:57;16.10;67.80
45785;DHT22;31489;51.404;5.474;2022-10-13T06:12:23;16.10;67.90
45785;DHT22;31489;51.404;5.474;2022-10-13T06:14:49;16.10;68.10
45785;DHT22;31489;51.404;5.474;2022-10-13T06:17:15;16.10;68.00
45785;DHT22;31489;51.404;5.474;2022-10-13T06:19:40;16.10;68.10
45785;DHT22;31489;51.404;5.474;2022-10-13T06:22:07;16.10;68.00
45785;DHT22;31489;51.404;5.474;2022-10-13T06:24:33;16.10;68.00
45785;DHT22;31489;51.404;5.474;2022-10-13T06:26:58;16.10;67.90
45785;DHT22;31489;51.404;5.474;2022-10-13T06:29:24;16.20;68.00
45785;DHT22;31489;51.404;5.474;2022-10-13T06:31:49;16.10;67.90
45785;DHT22;31489;51.404;5.474;2022-10-13T06:34:15;16.10;67.90
45785;DHT22;31489;51.404;5.474;2022-10-13T06:36:40;16.10;67.80
45785;DHT22;31489;51.404;5.474;2022-10-13T06:39:07;16.20;68.00
45785;DHT22;31489;51.404;5.474;2022-10-13T06:41:32;16.20;68.30
45785;DHT22;31489;51.404;5.474;2022-10-13T06:43:58;16.20;68.20
45785;DHT22;31489;51.404;5.474;2022-10-13T06:46:24;16.20;68.30
45785;DHT22;31489;51.404;5.474;2022-10-13T06:48:50;16.20;68.20
45785;DHT22;31489;51.404;5.474;2022-10-13T06:51:16;16.20;68.10
45785;DHT22;31489;51.404;5.474;2022-10-13T06:53:41;16.20;68.40
45785;DHT22;31489;51.404;5.474;2022-10-13T06:56:10;16.20;68.10
45785;DHT22;31489;51.404;5.474;2022-10-13T06:58:37;16.30;68.30
45785;DHT22;31489;51.404;5.474;2022-10-13T07:01:03;16.30;68.10
45785;DHT22;31489;51.404;5.474;2022-10-13T07:03:29;16.30;68.10
45785;DHT22;31489;51.404;5.474;2022-10-13T07:06:02;16.30;68.20
45785;DHT22;31489;51.404;5.474;2022-10-13T07:08:29;16.30;68.20
45785;DHT22;31489;51.404;5.474;2022-10-13T07:10:54;16.30;67.90
45785;DHT22;31489;51.404;5.474;2022-10-13T07:13:20;16.30;67.90
45785;DHT22;31489;51.404;5.474;2022-10-13T07:15:45;16.30;67.90
45785;DHT22;31489;51.404;5.474;2022-10-13T07:18:11;16.30;67.80
45785;DHT22;31489;51.404;5.474;2022-10-13T07:20:37;16.30;67.80
45785;DHT22;31489;51.404;5.474;2022-10-13T07:23:02;16.40;67.90
45785;DHT22;31489;51.404;5.474;2022-10-13T07:25:28;16.30;67.90
45785;DHT22;31489;51.404;5.474;2022-10-13T07:27:54;16.40;67.90
45785;DHT22;31489;51.404;5.474;2022-10-13T07:30:19;16.40;68.20
45785;DHT22;31489;51.404;5.474;2022-10-13T07:32:45;16.40;68.20
45785;DHT22;31489;51.404;5.474;2022-10-13T07:35:11;16.40;68.60
45785;DHT22;31489;51.404;5.474;2022-10-13T07:37:38;16.40;68.00
45785;DHT22;31489;51.404;5.474;2022-10-13T07:40:05;16.50;68.10
45785;DHT22;31489;51.404;5.474;2022-10-13T07:42:31;16.50;68.10
45785;DHT22;31489;51.404;5.474;2022-10-13T07:44:59;16.50;68.10
45785;DHT22;31489;51.404;5.474;2022-10-13T07:47:25;16.50;68.00
45785;DHT22;31489;51.404;5.474;2022-10-13T07:49:50;16.60;68.10
45785;DHT22;31489;51.404;5.474;2022-10-13T07:52:16;16.60;68.00
45785;DHT22;31489;51.404;5.474;2022-10-13T07:54:42;16.70;67.80
45785;DHT22;31489;51.404;5.474;2022-10-13T07:57:07;16.60;67.80
45785;DHT22;31489;51.404;5.474;2022-10-13T07:59:33;16.70;67.50
45785;DHT22;31489;51.404;5.474;2022-10-13T08:02:00;16.80;67.60
45785;DHT22;31489;51.404;5.474;2022-10-13T08:04:33;16.80;67.60
45785;DHT22;31489;51.404;5.474;2022-10-13T08:06:59;16.80;67.60
45785;DHT22;31489;51.404;5.474;2022-10-13T08:09:25;16.80;67.40
45785;DHT22;31489;51.404;5.474;2022-10-13T08:11:51;16.90;67.40
45785;DHT22;31489;51.404;5.474;2022-10-13T08:14:17;16.90;67.40
45785;DHT22;31489;51.404;5.474;2022-10-13T08:16:43;16.90;67.40
45785;DHT22;31489;51.404;5.474;2022-10-13T08:19:14;16.90;67.30
45785;DHT22;31489;51.404;5.474;2022-10-13T08:21:40;17.00;67.50
45785;DHT22;31489;51.404;5.474;2022-10-13T08:24:09;17.00;67.20
45785;DHT22;31489;51.404;5.474;2022-10-13T08:26:35;17.00;67.30
45785;DHT22;31489;51.404;5.474;2022-10-13T08:29:01;17.00;67.20
45785;DHT22;31489;51.404;5.474;2022-10-13T08:31:26;17.10;67.10
45785;DHT22;31489;51.404;5.474;2022-10-13T08:33:52;17.10;67.10
45785;DHT22;31489;51.404;5.474;2022-10-13T08:36:18;17.10;66.90
45785;DHT22;31489;51.404;5.474;2022-10-13T08:38:44;17.20;67.00
45785;DHT22;31489;51.404;5.474;2022-10-13T08:41:23;17.10;67.00
45785;DHT22;31489;51.404;5.474;2022-10-13T08:44:00;17.20;67.30
45785;DHT22;31489;51.404;5.474;2022-10-13T08:46:42;17.20;67.00
45785;DHT22;31489;51.404;5.474;2022-10-13T08:49:13;17.30;67.00
45785;DHT22;31489;51.404;5.474;2022-10-13T08:51:40;17.30;66.90
45785;DHT22;31489;51.404;5.474;2022-10-13T08:54:06;17.30;66.90
45785;DHT22;31489;51.404;5.474;2022-10-13T08:56:33;17.30;66.60
45785;DHT22;31489;51.404;5.474;2022-10-13T08:58:59;17.30;66.60
45785;DHT22;31489;51.404;5.474;2022-10-13T09:01:31;17.30;66.60
45785;DHT22;31489;51.404;5.474;2022-10-13T09:04:27;17.40;66.60
45785;DHT22;31489;51.404;5.474;2022-10-13T09:09:19;17.50;66.50
45785;DHT22;31489;51.404;5.474;2022-10-13T09:11:47;17.40;66.30
45785;DHT22;31489;51.404;5.474;2022-10-13T09:14:25;17.50;66.60
45785;DHT22;31489;51.404;5.474;2022-10-13T09:16:53;17.40;66.70
45785;DHT22;31489;51.404;5.474;2022-10-13T09:22:12;17.50;66.40
45785;DHT22;31489;51.404;5.474;2022-10-13T09:24:38;17.50;66.30
45785;DHT22;31489;51.404;5.474;2022-10-13T09:27:09;17.60;66.40
45785;DHT22;31489;51.404;5.474;2022-10-13T09:29:36;17.60;66.30
45785;DHT22;31489;51.404;5.474;2022-10-13T09:32:17;17.60;66.60
45785;DHT22;31489;51.404;5.474;2022-10-13T09:34:43;17.60;66.90
45785;DHT22;31489;51.404;5.474;2022-10-13T09:37:23;17.70;66.80
45785;DHT22;31489;51.404;5.474;2022-10-13T09:40:01;17.60;66.90
45785;DHT22;31489;51.404;5.474;2022-10-13T09:42:36;17.60;66.70
45785;DHT22;31489;51.404;5.474;2022-10-13T09:45:19;17.60;66.30
45785;DHT22;31489;51.404;5.474;2022-10-13T09:47:55;17.60;66.70
45785;DHT22;31489;51.404;5.474;2022-10-13T09:50:27;17.60;67.10
45785;DHT22;31489;51.404;5.474;2022-10-13T09:53:29;17.70;67.10
45785;DHT22;31489;51.404;5.474;2022-10-13T09:56:20;17.60;67.40
45785;DHT22;31489;51.404;5.474;2022-10-13T09:59:14;17.60;67.20
45785;DHT22;31489;51.404;5.474;2022-10-13T10:01:43;17.70;67.00
45785;DHT22;31489;51.404;5.474;2022-10-13T10:04:14;17.70;67.20
45785;DHT22;31489;51.404;5.474;2022-10-13T10:06:42;17.70;67.00
45785;DHT22;31489;51.404;5.474;2022-10-13T10:09:40;17.70;67.40
45785;DHT22;31489;51.404;5.474;2022-10-13T10:12:14;17.70;68.00
45785;DHT22;31489;51.404;5.474;2022-10-13T10:14:40;17.70;68.00
45785;DHT22;31489;51.404;5.474;2022-10-13T10:17:39;17.70;67.60
45785;DHT22;31489;51.404;5.474;2022-10-13T10:23:25;17.80;67.60
45785;DHT22;31489;51.404;5.474;2022-10-13T10:34:33;17.90;67.20
45785;DHT22;31489;51.404;5.474;2022-10-13T10:40:35;17.90;67.50
45785;DHT22;31489;51.404;5.474;2022-10-13T10:45:50;18.00;67.40
45785;DHT22;31489;51.404;5.474;2022-10-13T10:48:22;18.00;67.10
45785;DHT22;31489;51.404;5.474;2022-10-13T10:50:52;18.00;67.30
45785;DHT22;31489;51.404;5.474;2022-10-13T10:55:54;18.00;67.70
45785;DHT22;31489;51.404;5.474;2022-10-13T10:58:30;18.00;67.30
45785;DHT22;31489;51.404;5.474;2022-10-13T11:06:36;18.10;67.10
45785;DHT22;31489;51.404;5.474;2022-10-13T11:09:03;18.10;67.40
45785;DHT22;31489;51.404;5.474;2022-10-13T11:17:02;18.10;67.30
45785;DHT22;31489;51.404;5.474;2022-10-13T11:49:13;18.00;68.10
45785;DHT22;31489;51.404;5.474;2022-10-13T11:54:38;18.00;68.40
45785;DHT22;31489;51.404;5.474;2022-10-13T11:57:22;18.00;68.00
45785;DHT22;31489;51.404;5.474;2022-10-13T11:59:49;18.00;68.10
45785;DHT22;31489;51.404;5.474;2022-10-13T12:02:19;18.00;68.00
45785;DHT22;31489;51.404;5.474;2022-10-13T12:04:59;18.00;68.30
45785;DHT22;31489;51.404;5.474;2022-10-13T12:07:30;18.00;68.60
45785;DHT22;31489;51.404;5.474;2022-10-13T12:09:56;18.00;68.50
45785;DHT22;31489;51.404;5.474;2022-10-13T12:12:23;18.00;68.70
45785;DHT22;31489;51.404;5.474;2022-10-13T12:14:51;18.00;68.70
45785;DHT22;31489;51.404;5.474;2022-10-13T12:17:31;18.00;68.80
45785;DHT22;31489;51.404;5.474;2022-10-13T12:19:59;18.00;69.00
45785;DHT22;31489;51.404;5.474;2022-10-13T12:22:27;18.00;69.30
45785;DHT22;31489;51.404;5.474;2022-10-13T12:27:26;18.00;69.20
45785;DHT22;31489;51.404;5.474;2022-10-13T12:29:53;18.00;69.30
45785;DHT22;31489;51.404;5.474;2022-10-13T12:32:21;18.00;69.50
45785;DHT22;31489;51.404;5.474;2022-10-13T12:34:53;18.00;69.70
45785;DHT22;31489;51.404;5.474;2022-10-13T12:37:31;18.00;69.80
45785;DHT22;31489;51.404;5.474;2022-10-13T12:39:59;18.00;70.20
45785;DHT22;31489;51.404;5.474;2022-10-13T12:42:29;18.10;70.30
45785;DHT22;31489;51.404;5.474;2022-10-13T12:44:56;18.10;70.60
45785;DHT22;31489;51.404;5.474;2022-10-13T12:53:25;18.20;70.90
45785;DHT22;31489;51.404;5.474;2022-10-13T12:55:57;18.20;70.80
45785;DHT22;31489;51.404;5.474;2022-10-13T12:58:30;18.30;70.50
45785;DHT22;31489;51.404;5.474;2022-10-13T13:03:29;18.20;70.60
45785;DHT22;31489;51.404;5.474;2022-10-13T13:06:08;18.20;70.30
45785;DHT22;31489;51.404;5.474;2022-10-13T13:08:34;18.20;70.80
45785;DHT22;31489;51.404;5.474;2022-10-13T13:11:03;18.20;70.50
45785;DHT22;31489;51.404;5.474;2022-10-13T13:13:29;18.20;70.90
45785;DHT22;31489;51.404;5.474;2022-10-13T13:16:15;18.20;70.90
45785;DHT22;31489;51.404;5.474;2022-10-13T13:18:44;18.20;71.50
45785;DHT22;31489;51.404;5.474;2022-10-13T13:21:17;18.20;70.90
45785;DHT22;31489;51.404;5.474;2022-10-13T13:23:45;18.20;71.40
45785;DHT22;31489;51.404;5.474;2022-10-13T13:26:12;18.20;71.20
45785;DHT22;31489;51.404;5.474;2022-10-13T13:28:46;18.20;71.20
45785;DHT22;31489;51.404;5.474;2022-10-13T13:31:12;18.20;71.90
45785;DHT22;31489;51.404;5.474;2022-10-13T13:33:39;18.10;71.50
45785;DHT22;31489;51.404;5.474;2022-10-13T13:36:19;18.20;71.70
45785;DHT22;31489;51.404;5.474;2022-10-13T13:38:46;18.20;72.20
45785;DHT22;31489;51.404;5.474;2022-10-13T13:41:13;18.20;71.70
45785;DHT22;31489;51.404;5.474;2022-10-13T13:43:38;18.20;72.20
45785;DHT22;31489;51.404;5.474;2022-10-13T13:46:05;18.20;72.50
45785;DHT22;31489;51.404;5.474;2022-10-13T13:48:31;18.20;72.10
45785;DHT22;31489;51.404;5.474;2022-10-13T13:50:57;18.20;72.10
45785;DHT22;31489;51.404;5.474;2022-10-13T13:53:22;18.20;72.10
45785;DHT22;31489;51.404;5.474;2022-10-13T13:55:48;18.20;72.10
45785;DHT22;31489;51.404;5.474;2022-10-13T13:58:14;18.20;72.00
45785;DHT22;31489;51.404;5.474;2022-10-13T14:00:40;18.20;72.10
45785;DHT22;31489;51.404;5.474;2022-10-13T14:03:06;18.20;72.00
45785;DHT22;31489;51.404;5.474;2022-10-13T14:05:31;18.20;72.10
45785;DHT22;31489;51.404;5.474;2022-10-13T14:07:57;18.20;71.90
45785;DHT22;31489;51.404;5.474;2022-10-13T14:10:24;18.20;72.60
45785;DHT22;31489;51.404;5.474;2022-10-13T14:12:50;18.20;72.20
45785;DHT22;31489;51.404;5.474;2022-10-13T14:15:17;18.20;72.20
45785;DHT22;31489;51.404;5.474;2022-10-13T14:17:43;18.10;72.20
45785;DHT22;31489;51.404;5.474;2022-10-13T14:20:09;18.20;72.20
45785;DHT22;31489;51.404;5.474;2022-10-13T14:22:37;18.20;72.20
45785;DHT22;31489;51.404;5.474;2022-10-13T14:25:04;18.10;71.70
45785;DHT22;31489;51.404;5.474;2022-10-13T14:27:32;18.10;72.00
45785;DHT22;31489;51.404;5.474;2022-10-13T14:29:58;18.10;72.10
45785;DHT22;31489;51.404;5.474;2022-10-13T14:32:24;18.10;72.10
45785;DHT22;31489;51.404;5.474;2022-10-13T14:34:50;18.10;72.10
45785;DHT22;31489;51.404;5.474;2022-10-13T14:37:16;18.10;72.10
45785;DHT22;31489;51.404;5.474;2022-10-13T14:39:41;18.10;72.00
45785;DHT22;31489;51.404;5.474;2022-10-13T14:42:07;18.10;72.20
45785;DHT22;31489;51.404;5.474;2022-10-13T14:44:35;18.10;72.10
45785;DHT22;31489;51.404;5.474;2022-10-13T14:47:01;18.10;72.10
45785;DHT22;31489;51.404;5.474;2022-10-13T14:49:27;18.10;72.00
45785;DHT22;31489;51.404;5.474;2022-10-13T14:51:52;18.10;72.00
45785;DHT22;31489;51.404;5.474;2022-10-13T14:54:22;18.10;72.00
45785;DHT22;31489;51.404;5.474;2022-10-13T14:56:48;18.10;72.10
45785;DHT22;31489;51.404;5.474;2022-10-13T14:59:14;18.10;71.90
45785;DHT22;31489;51.404;5.474;2022-10-13T15:01:40;18.10;71.90
45785;DHT22;31489;51.404;5.474;2022-10-13T15:04:06;18.10;72.00
45785;DHT22;31489;51.404;5.474;2022-10-13T15:06:32;18.10;71.90
45785;DHT22;31489;51.404;5.474;2022-10-13T15:08:58;18.10;71.90
45785;DHT22;31489;51.404;5.474;2022-10-13T15:11:24;18.10;71.90
45785;DHT22;31489;51.404;5.474;2022-10-13T15:13:58;18.10;71.60
45785;DHT22;31489;51.404;5.474;2022-10-13T15:16:26;18.10;71.60
45785;DHT22;31489;51.404;5.474;2022-10-13T15:19:00;18.10;71.50
45785;DHT22;31489;51.404;5.474;2022-10-13T15:21:27;18.10;71.60
45785;DHT22;31489;51.404;5.474;2022-10-13T15:23:52;18.00;71.50
45785;DHT22;31489;51.404;5.474;2022-10-13T15:26:19;18.00;71.60
45785;DHT22;31489;51.404;5.474;2022-10-13T15:28:50;18.00;71.70
45785;DHT22;31489;51.404;5.474;2022-10-13T15:31:17;18.00;71.90
45785;DHT22;31489;51.404;5.474;2022-10-13T15:33:52;18.00;71.80
45785;DHT22;31489;51.404;5.474;2022-10-13T15:36:19;18.00;72.10
45785;DHT22;31489;51.404;5.474;2022-10-13T15:38:48;17.90;71.80
45785;DHT22;31489;51.404;5.474;2022-10-13T15:41:14;17.90;71.90
45785;DHT22;31489;51.404;5.474;2022-10-13T15:43:43;17.90;71.60
45785;DHT22;31489;51.404;5.474;2022-10-13T15:46:13;17.90;72.00
45785;DHT22;31489;51.404;5.474;2022-10-13T15:48:50;17.90;72.30
45785;DHT22;31489;51.404;5.474;2022-10-13T15:51:18;17.90;71.70
45785;DHT22;31489;51.404;5.474;2022-10-13T15:53:48;17.90;71.50
45785;DHT22;31489;51.404;5.474;2022-10-13T15:56:16;17.90;71.50
45785;DHT22;31489;51.404;5.474;2022-10-13T15:58:42;17.80;71.50
45785;DHT22;31489;51.404;5.474;2022-10-13T16:01:12;17.80;71.50
45785;DHT22;31489;51.404;5.474;2022-10-13T16:03:40;17.90;71.70
45785;DHT22;31489;51.404;5.474;2022-10-13T16:06:10;17.80;71.50
45785;DHT22;31489;51.404;5.474;2022-10-13T16:08:40;17.80;71.60
45785;DHT22;31489;51.404;5.474;2022-10-13T16:11:11;17.80;71.60
45785;DHT22;31489;51.404;5.474;2022-10-13T16:13:38;17.80;71.70
45785;DHT22;31489;51.404;5.474;2022-10-13T16:16:07;17.80;71.70
45785;DHT22;31489;51.404;5.474;2022-10-13T16:18:34;17.80;71.80
45785;DHT22;31489;51.404;5.474;2022-10-13T16:21:10;17.80;71.90
45785;DHT22;31489;51.404;5.474;2022-10-13T16:23:37;17.80;72.10
45785;DHT22;31489;51.404;5.474;2022-10-13T16:26:08;17.80;71.80
45785;DHT22;31489;51.404;5.474;2022-10-13T16:28:35;17.80;71.90
45785;DHT22;31489;51.404;5.474;2022-10-13T16:31:05;17.80;71.90
45785;DHT22;31489;51.404;5.474;2022-10-13T16:33:40;17.80;72.00
45785;DHT22;31489;51.404;5.474;2022-10-13T16:36:08;17.80;72.30
45785;DHT22;31489;51.404;5.474;2022-10-13T16:38:35;17.80;72.70
45785;DHT22;31489;51.404;5.474;2022-10-13T16:41:10;17.80;72.60
45785;DHT22;31489;51.404;5.474;2022-10-13T16:43:43;17.80;72.40
45785;DHT22;31489;51.404;5.474;2022-10-13T16:46:13;17.80;72.20
45785;DHT22;31489;51.404;5.474;2022-10-13T16:48:40;17.80;72.30
45785;DHT22;31489;51.404;5.474;2022-10-13T16:51:14;17.80;72.20
45785;DHT22;31489;51.404;5.474;2022-10-13T16:53:40;17.80;72.40
45785;DHT22;31489;51.404;5.474;2022-10-13T16:56:06;17.80;72.30
45785;DHT22;31489;51.404;5.474;2022-10-13T16:58:33;17.70;72.30
45785;DHT22;31489;51.404;5.474;2022-10-13T17:01:03;17.70;72.40
45785;DHT22;31489;51.404;5.474;2022-10-13T17:03:29;17.80;73.20
45785;DHT22;31489;51.404;5.474;2022-10-13T17:05:55;17.70;72.40
45785;DHT22;31489;51.404;5.474;2022-10-13T17:08:21;17.70;72.50
45785;DHT22;31489;51.404;5.474;2022-10-13T17:10:52;17.80;72.70
45785;DHT22;31489;51.404;5.474;2022-10-13T17:13:17;17.80;72.80
45785;DHT22;31489;51.404;5.474;2022-10-13T17:15:54;17.80;72.60
45785;DHT22;31489;51.404;5.474;2022-10-13T17:18:24;17.70;72.90